sensor_id;sensor_type;location;lat;lon;timestamp;pressure;altitude;pressure_sealevel;temperature;humidity
60832;BME280;46665;51.558;-0.448;2023-05-08T00:00:36;101524.03;;;10.48;100.00
60832;BME280;46665;51.558;-0.448;2023-05-08T00:03:03;101520.41;;;10.43;100.00
60832;BME280;46665;51.558;-0.448;2023-05-08T00:05:28;101519.53;;;10.37;100.00
60832;BME280;46665;51.558;-0.448;2023-05-08T00:07:53;101518.72;;;10.36;100.00
60832;BME280;46665;51.558;-0.448;2023-05-08T00:10:28;101505.91;;;10.32;100.00
60832;BME280;46665;51.558;-0.448;2023-05-08T00:12:54;101504.28;;;10.31;100.00
60832;BME280;46665;51.558;-0.448;2023-05-08T00:15:20;101499.06;;;10.29;100.00
60832;BME280;46665;51.558;-0.448;2023-05-08T00:17:45;101495.75;;;10.27;100.00
60832;BME280;46665;51.558;-0.448;2023-05-08T00:20:11;101498.75;;;10.26;100.00
60832;BME280;46665;51.558;-0.448;2023-05-08T00:22:37;101497.91;;;10.25;100.00
60832;BME280;46665;51.558;-0.448;2023-05-08T00:25:03;101492.19;;;10.22;100.00
60832;BME280;46665;51.558;-0.448;2023-05-08T00:27:32;101498.94;;;10.19;100.00
60832;BME280;46665;51.558;-0.448;2023-05-08T00:29:58;101499.47;;;10.16;100.00
60832;BME280;46665;51.558;-0.448;2023-05-08T00:32:24;101498.91;;;10.14;100.00
60832;BME280;46665;51.558;-0.448;2023-05-08T00:34:49;101504.59;;;10.12;100.00
60832;BME280;46665;51.558;-0.448;2023-05-08T00:37:15;101496.91;;;10.04;100.00
60832;BME280;46665;51.558;-0.448;2023-05-08T00:39:41;101490.84;;;9.97;100.00
60832;BME280;46665;51.558;-0.448;2023-05-08T00:42:06;101497.03;;;9.92;100.00
60832;BME280;46665;51.558;-0.448;2023-05-08T00:44:32;101492.94;;;9.90;100.00
60832;BME280;46665;51.558;-0.448;2023-05-08T00:46:57;101495.59;;;9.85;100.00
60832;BME280;46665;51.558;-0.448;2023-05-08T00:49:23;101500.97;;;9.80;100.00
60832;BME280;46665;51.558;-0.448;2023-05-08T00:51:50;101508.06;;;9.81;100.00
60832;BME280;46665;51.558;-0.448;2023-05-08T00:54:17;101497.19;;;9.81;100.00
60832;BME280;46665;51.558;-0.448;2023-05-08T00:56:43;101494.22;;;9.82;100.00
60832;BME280;46665;51.558;-0.448;2023-05-08T00:59:12;101494.22;;;9.82;100.00
60832;BME280;46665;51.558;-0.448;2023-05-08T01:01:39;101496.13;;;9.82;100.00
60832;BME280;46665;51.558;-0.448;2023-05-08T01:04:05;101493.41;;;9.82;100.00
60832;BME280;46665;51.558;-0.448;2023-05-08T01:06:31;101491.44;;;9.77;100.00
60832;BME280;46665;51.558;-0.448;2023-05-08T01:08:59;101486.28;;;9.75;100.00
60832;BME280;46665;51.558;-0.448;2023-05-08T01:11:37;101475.66;;;9.74;100.00
60832;BME280;46665;51.558;-0.448;2023-05-08T01:14:24;101481.91;;;9.74;100.00
60832;BME280;46665;51.558;-0.448;2023-05-08T01:17:10;101483.81;;;9.74;100.00
60832;BME280;46665;51.558;-0.448;2023-05-08T01:33:12;101472.25;;;9.62;100.00
60832;BME280;46665;51.558;-0.448;2023-05-08T01:35:49;101462.69;;;9.59;100.00
60832;BME280;46665;51.558;-0.448;2023-05-08T01:38:24;101470.03;;;9.59;100.00
60832;BME280;46665;51.558;-0.448;2023-05-08T01:40:52;101468.66;;;9.56;100.00
60832;BME280;46665;51.558;-0.448;2023-05-08T01:43:43;101467.78;;;9.50;100.00
60832;BME280;46665;51.558;-0.448;2023-05-08T01:46:17;101473.91;;;9.41;100.00
60832;BME280;46665;51.558;-0.448;2023-05-08T01:48:49;101472.22;;;9.35;100.00
60832;BME280;46665;51.558;-0.448;2023-05-08T01:51:21;101475.41;;;9.31;100.00
60832;BME280;46665;51.558;-0.448;2023-05-08T01:53:55;101470.50;;;9.28;100.00
60832;BME280;46665;51.558;-0.448;2023-05-08T01:56:23;101477.81;;;9.28;100.00
60832;BME280;46665;51.558;-0.448;2023-05-08T01:58:52;101481.03;;;9.25;100.00
60832;BME280;46665;51.558;-0.448;2023-05-08T02:01:21;101488.84;;;9.21;100.00
60832;BME280;46665;51.558;-0.448;2023-05-08T02:03:48;101493.16;;;9.17;100.00
60832;BME280;46665;51.558;-0.448;2023-05-08T02:06:17;101484.69;;;9.14;100.00
60832;BME280;46665;51.558;-0.448;2023-05-08T02:08:44;101493.91;;;9.13;100.00
60832;BME280;46665;51.558;-0.448;2023-05-08T02:11:11;101488.19;;;9.09;100.00
60832;BME280;46665;51.558;-0.448;2023-05-08T02:13:38;101482.97;;;9.07;100.00
60832;BME280;46665;51.558;-0.448;2023-05-08T02:16:07;101482.97;;;9.07;100.00
60832;BME280;46665;51.558;-0.448;2023-05-08T02:18:33;101488.19;;;9.09;100.00
60832;BME280;46665;51.558;-0.448;2023-05-08T02:21:01;101493.59;;;9.09;100.00
60832;BME280;46665;51.558;-0.448;2023-05-08T02:23:28;101485.19;;;9.10;100.00
60832;BME280;46665;51.558;-0.448;2023-05-08T02:25:54;101483.06;;;9.13;100.00
60832;BME280;46665;51.558;-0.448;2023-05-08T02:28:21;101473.81;;;9.14;100.00
60832;BME280;46665;51.558;-0.448;2023-05-08T02:30:49;101475.41;;;9.09;100.00
60832;BME280;46665;51.558;-0.448;2023-05-08T02:33:15;101473.22;;;9.06;100.00
60832;BME280;46665;51.558;-0.448;2023-05-08T02:35:43;101474.50;;;9.04;100.00
60832;BME280;46665;51.558;-0.448;2023-05-08T02:38:11;101478.28;;;9.03;100.00
60832;BME280;46665;51.558;-0.448;2023-05-08T02:40:44;101473.38;;;9.00;100.00
60832;BME280;46665;51.558;-0.448;2023-05-08T02:43:10;101470.31;;;8.96;100.00
60832;BME280;46665;51.558;-0.448;2023-05-08T02:45:42;101478.47;;;8.96;100.00
60832;BME280;46665;51.558;-0.448;2023-05-08T02:48:21;101468.13;;;8.93;100.00
60832;BME280;46665;51.558;-0.448;2023-05-08T02:53:18;101469.19;;;8.92;100.00
60832;BME280;46665;51.558;-0.448;2023-05-08T02:55:52;101461.06;;;8.92;100.00
60832;BME280;46665;51.558;-0.448;2023-05-08T03:01:14;101461.88;;;8.93;100.00
60832;BME280;46665;51.558;-0.448;2023-05-08T03:03:45;101449.38;;;8.92;100.00
60832;BME280;46665;51.558;-0.448;2023-05-08T03:06:17;101453.97;;;8.91;100.00
60832;BME280;46665;51.558;-0.448;2023-05-08T03:08:45;101450.44;;;8.90;100.00
60832;BME280;46665;51.558;-0.448;2023-05-08T03:11:14;101443.53;;;8.83;100.00
60832;BME280;46665;51.558;-0.448;2023-05-08T03:13:41;101456.47;;;8.76;100.00
60832;BME280;46665;51.558;-0.448;2023-05-08T03:16:16;101459.94;;;8.71;100.00
60832;BME280;46665;51.558;-0.448;2023-05-08T03:18:56;101461.50;;;8.67;100.00
60832;BME280;46665;51.558;-0.448;2023-05-08T03:21:26;101458.78;;;8.67;100.00
60832;BME280;46665;51.558;-0.448;2023-05-08T03:23:53;101462.81;;;8.64;100.00
60832;BME280;46665;51.558;-0.448;2023-05-08T03:26:21;101466.84;;;8.62;100.00
60832;BME280;46665;51.558;-0.448;2023-05-08T03:28:47;101467.66;;;8.62;100.00
60832;BME280;46665;51.558;-0.448;2023-05-08T03:31:18;101465.53;;;8.64;100.00
60832;BME280;46665;51.558;-0.448;2023-05-08T03:33:50;101461.72;;;8.65;100.00
60832;BME280;46665;51.558;-0.448;2023-05-08T03:36:17;101461.41;;;8.62;100.00
60832;BME280;46665;51.558;-0.448;2023-05-08T03:38:43;101465.75;;;8.63;100.00
60832;BME280;46665;51.558;-0.448;2023-05-08T03:41:10;101467.94;;;8.61;100.00
60832;BME280;46665;51.558;-0.448;2023-05-08T03:43:36;101460.84;;;8.60;100.00
60832;BME280;46665;51.558;-0.448;2023-05-08T03:46:04;101457.56;;;8.58;100.00
60832;BME280;46665;51.558;-0.448;2023-05-08T03:48:31;101461.94;;;8.59;100.00
60832;BME280;46665;51.558;-0.448;2023-05-08T03:50:57;101451.81;;;8.54;100.00
60832;BME280;46665;51.558;-0.448;2023-05-08T03:53:25;101455.84;;;8.52;100.00
60832;BME280;46665;51.558;-0.448;2023-05-08T03:55:51;101449.34;;;8.53;100.00
60832;BME280;46665;51.558;-0.448;2023-05-08T04:06:28;101430.09;;;8.71;100.00
60832;BME280;46665;51.558;-0.448;2023-05-08T04:09:07;101444.22;;;8.73;100.00
60832;BME280;46665;51.558;-0.448;2023-05-08T04:11:55;101438.72;;;8.68;100.00
60832;BME280;46665;51.558;-0.448;2023-05-08T04:14:26;101431.88;;;8.65;100.00
60832;BME280;46665;51.558;-0.448;2023-05-08T04:16:59;101434.38;;;8.67;100.00
60832;BME280;46665;51.558;-0.448;2023-05-08T04:19:28;101440.59;;;8.67;100.00
60832;BME280;46665;51.558;-0.448;2023-05-08T04:22:00;101435.44;;;8.66;100.00
60832;BME280;46665;51.558;-0.448;2023-05-08T04:24:29;101440.59;;;8.67;100.00
60832;BME280;46665;51.558;-0.448;2023-05-08T04:26:56;101438.72;;;8.68;100.00
60832;BME280;46665;51.558;-0.448;2023-05-08T04:29:21;101430.56;;;8.68;100.00
60832;BME280;46665;51.558;-0.448;2023-05-08T04:31:47;101440.88;;;8.66;100.00
60832;BME280;46665;51.558;-0.448;2023-05-08T04:34:15;101435.75;;;8.70;100.00
60832;BME280;46665;51.558;-0.448;2023-05-08T04:36:41;101439.38;;;8.75;100.00
60832;BME280;46665;51.558;-0.448;2023-05-08T04:39:07;101431.28;;;8.80;100.00
60832;BME280;46665;51.558;-0.448;2023-05-08T04:41:32;101429.72;;;8.84;100.00
60832;BME280;46665;51.558;-0.448;2023-05-08T04:43:59;101432.25;;;8.91;100.00
60832;BME280;46665;51.558;-0.448;2023-05-08T04:46:25;101427.97;;;8.95;100.00
60832;BME280;46665;51.558;-0.448;2023-05-08T04:48:50;101431.25;;;8.97;100.00
60832;BME280;46665;51.558;-0.448;2023-05-08T04:51:16;101429.38;;;8.98;100.00
60832;BME280;46665;51.558;-0.448;2023-05-08T04:53:41;101432.38;;;9.01;100.00
60832;BME280;46665;51.558;-0.448;2023-05-08T04:56:06;101435.69;;;9.03;100.00
60832;BME280;46665;51.558;-0.448;2023-05-08T04:58:32;101423.75;;;9.04;100.00
60832;BME280;46665;51.558;-0.448;2023-05-08T05:01:01;101440.13;;;9.09;100.00
60832;BME280;46665;51.558;-0.448;2023-05-08T05:03:27;101429.25;;;9.09;100.00
60832;BME280;46665;51.558;-0.448;2023-05-08T05:05:57;101433.03;;;9.08;100.00
60832;BME280;46665;51.558;-0.448;2023-05-08T05:08:23;101428.75;;;9.13;100.00
60832;BME280;46665;51.558;-0.448;2023-05-08T05:10:48;101430.19;;;9.20;100.00
60832;BME280;46665;51.558;-0.448;2023-05-08T05:13:14;101423.81;;;9.31;100.00
60832;BME280;46665;51.558;-0.448;2023-05-08T05:15:41;101424.78;;;9.42;100.00
60832;BME280;46665;51.558;-0.448;2023-05-08T05:18:07;101434.16;;;9.57;100.00
60832;BME280;46665;51.558;-0.448;2023-05-08T05:20:32;101435.91;;;9.68;100.00
60832;BME280;46665;51.558;-0.448;2023-05-08T05:22:58;101438.97;;;9.76;100.00
60832;BME280;46665;51.558;-0.448;2023-05-08T05:25:23;101437.69;;;9.84;100.00
60832;BME280;46665;51.558;-0.448;2023-05-08T05:27:48;101446.75;;;9.95;100.00
60832;BME280;46665;51.558;-0.448;2023-05-08T05:30:14;101449.28;;;10.02;100.00
60832;BME280;46665;51.558;-0.448;2023-05-08T05:32:40;101454.78;;;10.07;100.00
60832;BME280;46665;51.558;-0.448;2023-05-08T05:35:06;101453.47;;;10.14;100.00
60832;BME280;46665;51.558;-0.448;2023-05-08T05:37:31;101461.69;;;10.19;100.00
60832;BME280;46665;51.558;-0.448;2023-05-08T05:39:57;101457.94;;;10.26;100.00
60832;BME280;46665;51.558;-0.448;2023-05-08T05:42:22;101459.91;;;10.30;100.00
60832;BME280;46665;51.558;-0.448;2023-05-08T05:44:47;101460.47;;;10.32;100.00
60832;BME280;46665;51.558;-0.448;2023-05-08T05:47:13;101465.38;;;10.35;100.00
60832;BME280;46665;51.558;-0.448;2023-05-08T05:49:38;101467.59;;;10.38;100.00
60832;BME280;46665;51.558;-0.448;2023-05-08T05:52:07;101473.38;;;10.47;100.00
60832;BME280;46665;51.558;-0.448;2023-05-08T05:54:32;101469.31;;;10.50;100.00
60832;BME280;46665;51.558;-0.448;2023-05-08T05:56:57;101475.94;;;10.59;100.00
60832;BME280;46665;51.558;-0.448;2023-05-08T05:59:23;101477.56;;;10.60;100.00
60832;BME280;46665;51.558;-0.448;2023-05-08T06:01:48;101486.56;;;10.66;100.00
60832;BME280;46665;51.558;-0.448;2023-05-08T06:04:14;101483.88;;;10.71;100.00
60832;BME280;46665;51.558;-0.448;2023-05-08T06:06:39;101480.91;;;10.72;100.00
60832;BME280;46665;51.558;-0.448;2023-05-08T06:09:05;101487.22;;;10.78;100.00
60832;BME280;46665;51.558;-0.448;2023-05-08T06:11:31;101485.31;;;10.78;100.00
60832;BME280;46665;51.558;-0.448;2023-05-08T06:13:56;101494.03;;;10.80;100.00
60832;BME280;46665;51.558;-0.448;2023-05-08T06:16:22;101490.75;;;10.78;100.00
60832;BME280;46665;51.558;-0.448;2023-05-08T06:18:49;101490.50;;;10.80;100.00
60832;BME280;46665;51.558;-0.448;2023-05-08T06:21:15;101489.41;;;10.81;100.00
60832;BME280;46665;51.558;-0.448;2023-05-08T06:23:41;101493.47;;;10.78;100.00
60832;BME280;46665;51.558;-0.448;2023-05-08T06:26:07;101491.59;;;10.79;100.00
60832;BME280;46665;51.558;-0.448;2023-05-08T06:28:32;101492.09;;;10.76;100.00
60832;BME280;46665;51.558;-0.448;2023-05-08T06:30:58;101500.81;;;10.78;100.00
60832;BME280;46665;51.558;-0.448;2023-05-08T06:33:23;101501.16;;;10.87;100.00
60832;BME280;46665;51.558;-0.448;2023-05-08T06:35:48;101508.22;;;10.82;100.00
60832;BME280;46665;51.558;-0.448;2023-05-08T06:38:14;101502.19;;;10.80;100.00
60832;BME280;46665;51.558;-0.448;2023-05-08T06:40:43;101497.31;;;10.82;100.00
60832;BME280;46665;51.558;-0.448;2023-05-08T06:43:10;101497.91;;;10.90;100.00
60832;BME280;46665;51.558;-0.448;2023-05-08T06:45:36;101499.31;;;10.97;100.00
60832;BME280;46665;51.558;-0.448;2023-05-08T06:48:01;101494.41;;;10.94;100.00
60832;BME280;46665;51.558;-0.448;2023-05-08T06:50:27;101512.13;;;10.97;100.00
60832;BME280;46665;51.558;-0.448;2023-05-08T06:52:52;101508.34;;;11.03;100.00
60832;BME280;46665;51.558;-0.448;2023-05-08T06:55:18;101503.78;;;11.14;100.00
60832;BME280;46665;51.558;-0.448;2023-05-08T06:57:43;101500.78;;;11.15;100.00
60832;BME280;46665;51.558;-0.448;2023-05-08T07:00:09;101506.84;;;11.22;100.00
60832;BME280;46665;51.558;-0.448;2023-05-08T07:02:34;101502.25;;;11.33;100.00
60832;BME280;46665;51.558;-0.448;2023-05-08T07:05:00;101502.84;;;11.40;100.00
60832;BME280;46665;51.558;-0.448;2023-05-08T07:07:25;101511.03;;;11.45;100.00
60832;BME280;46665;51.558;-0.448;2023-05-08T07:09:51;101499.56;;;11.43;100.00
60832;BME280;46665;51.558;-0.448;2023-05-08T07:12:16;101507.50;;;11.50;100.00
60832;BME280;46665;51.558;-0.448;2023-05-08T07:14:42;101513.81;;;11.61;100.00
60832;BME280;46665;51.558;-0.448;2023-05-08T07:17:08;101511.06;;;11.50;100.00
60832;BME280;46665;51.558;-0.448;2023-05-08T07:19:36;101507.53;;;11.55;100.00
60832;BME280;46665;51.558;-0.448;2023-05-08T07:22:02;101506.19;;;11.58;100.00
60832;BME280;46665;51.558;-0.448;2023-05-08T07:24:28;101501.03;;;11.66;100.00
60832;BME280;46665;51.558;-0.448;2023-05-08T07:26:53;101503.75;;;11.66;100.00
60832;BME280;46665;51.558;-0.448;2023-05-08T07:29:19;101497.19;;;11.57;100.00
60832;BME280;46665;51.558;-0.448;2023-05-08T07:31:45;101496.13;;;11.68;100.00
60832;BME280;46665;51.558;-0.448;2023-05-08T07:34:11;101496.69;;;11.76;100.00
60832;BME280;46665;51.558;-0.448;2023-05-08T07:36:36;101500.78;;;11.73;100.00
60832;BME280;46665;51.558;-0.448;2023-05-08T07:39:02;101494.25;;;11.79;100.00
60832;BME280;46665;51.558;-0.448;2023-05-08T07:41:28;101497.31;;;11.88;100.00
60832;BME280;46665;51.558;-0.448;2023-05-08T07:43:53;101495.97;;;11.96;100.00
60832;BME280;46665;51.558;-0.448;2023-05-08T07:46:19;101503.06;;;12.02;100.00
60832;BME280;46665;51.558;-0.448;2023-05-08T07:48:44;101493.25;;;12.06;100.00
60832;BME280;46665;51.558;-0.448;2023-05-08T07:51:10;101486.69;;;12.07;100.00
60832;BME280;46665;51.558;-0.448;2023-05-08T07:53:36;101484.53;;;12.09;100.00
60832;BME280;46665;51.558;-0.448;2023-05-08T07:56:01;101487.00;;;12.10;100.00
60832;BME280;46665;51.558;-0.448;2023-05-08T07:58:26;101491.91;;;12.19;100.00
60832;BME280;46665;51.558;-0.448;2023-05-08T08:00:52;101490.25;;;12.18;100.00
60832;BME280;46665;51.558;-0.448;2023-05-08T08:03:18;101491.09;;;12.18;100.00
60832;BME280;46665;51.558;-0.448;2023-05-08T08:05:43;101487.81;;;12.26;100.00
60832;BME280;46665;51.558;-0.448;2023-05-08T08:08:09;101487.53;;;12.28;100.00
60832;BME280;46665;51.558;-0.448;2023-05-08T08:10:34;101481.81;;;12.34;100.00
60832;BME280;46665;51.558;-0.448;2023-05-08T08:13:00;101488.91;;;12.35;100.00
60832;BME280;46665;51.558;-0.448;2023-05-08T08:15:28;101483.19;;;12.37;100.00
60832;BME280;46665;51.558;-0.448;2023-05-08T08:17:54;101482.91;;;12.28;100.00
60832;BME280;46665;51.558;-0.448;2023-05-08T08:20:19;101482.06;;;12.33;100.00
60832;BME280;46665;51.558;-0.448;2023-05-08T08:22:45;101491.91;;;12.39;100.00
60832;BME280;46665;51.558;-0.448;2023-05-08T08:25:10;101485.34;;;12.30;100.00
60832;BME280;46665;51.558;-0.448;2023-05-08T08:27:36;101484.53;;;12.34;100.00
60832;BME280;46665;51.558;-0.448;2023-05-08T08:30:02;101470.34;;;12.43;100.00
60832;BME280;46665;51.558;-0.448;2023-05-08T08:32:27;101484.84;;;12.48;100.00
60832;BME280;46665;51.558;-0.448;2023-05-08T08:34:52;101479.91;;;12.45;100.00
60832;BME280;46665;51.558;-0.448;2023-05-08T08:37:18;101477.72;;;12.52;100.00
60832;BME280;46665;51.558;-0.448;2023-05-08T08:39:43;101487.81;;;12.62;100.00
60832;BME280;46665;51.558;-0.448;2023-05-08T08:42:09;101483.97;;;12.68;100.00
60832;BME280;46665;51.558;-0.448;2023-05-08T08:44:34;101483.72;;;12.75;100.00
60832;BME280;46665;51.558;-0.448;2023-05-08T08:47:00;101475.25;;;12.71;100.00
60832;BME280;46665;51.558;-0.448;2023-05-08T08:49:31;101480.97;;;12.80;100.00
60832;BME280;46665;51.558;-0.448;2023-05-08T08:52:02;101474.94;;;12.88;100.00
60832;BME280;46665;51.558;-0.448;2023-05-08T08:54:32;101474.91;;;12.98;100.00
60832;BME280;46665;51.558;-0.448;2023-05-08T08:57:00;101471.09;;;13.10;100.00
60832;BME280;46665;51.558;-0.448;2023-05-08T08:59:30;101476.25;;;13.11;100.00
60832;BME280;46665;51.558;-0.448;2023-05-08T09:02:00;101474.63;;;13.10;100.00
60832;BME280;46665;51.558;-0.448;2023-05-08T09:04:30;101473.84;;;12.99;100.00
60832;BME280;46665;51.558;-0.448;2023-05-08T09:06:56;101466.19;;;13.07;100.00
60832;BME280;46665;51.558;-0.448;2023-05-08T09:09:22;101471.66;;;13.01;100.00
60832;BME280;46665;51.558;-0.448;2023-05-08T09:11:50;101463.19;;;12.98;100.00
60832;BME280;46665;51.558;-0.448;2023-05-08T09:14:16;101466.22;;;12.96;100.00
60832;BME280;46665;51.558;-0.448;2023-05-08T09:16:42;101470.28;;;12.99;100.00
60832;BME280;46665;51.558;-0.448;2023-05-08T09:19:08;101467.56;;;12.94;100.00
60832;BME280;46665;51.558;-0.448;2023-05-08T09:21:33;101463.19;;;12.93;100.00
60832;BME280;46665;51.558;-0.448;2023-05-08T09:24:03;101465.94;;;12.88;100.00
60832;BME280;46665;51.558;-0.448;2023-05-08T09:26:36;101470.31;;;12.89;100.00
60832;BME280;46665;51.558;-0.448;2023-05-08T09:29:19;101460.47;;;12.83;100.00
60832;BME280;46665;51.558;-0.448;2023-05-08T09:31:51;101469.50;;;12.83;100.00
60832;BME280;46665;51.558;-0.448;2023-05-08T09:34:28;101465.69;;;12.84;100.00
60832;BME280;46665;51.558;-0.448;2023-05-08T09:37:10;101463.47;;;12.86;100.00
60832;BME280;46665;51.558;-0.448;2023-05-08T09:39:35;101478.50;;;12.89;100.00
60832;BME280;46665;51.558;-0.448;2023-05-08T09:42:02;101470.31;;;12.84;100.00
60832;BME280;46665;51.558;-0.448;2023-05-08T09:44:42;101456.38;;;12.85;100.00
60832;BME280;46665;51.558;-0.448;2023-05-08T09:47:13;101456.13;;;12.82;100.00
60832;BME280;46665;51.558;-0.448;2023-05-08T09:49:55;101462.38;;;12.92;100.00
60832;BME280;46665;51.558;-0.448;2023-05-08T09:52:20;101456.34;;;13.00;100.00
60832;BME280;46665;51.558;-0.448;2023-05-08T09:54:47;101464.81;;;13.04;100.00
60832;BME280;46665;51.558;-0.448;2023-05-08T09:57:13;101459.88;;;13.06;100.00
60832;BME280;46665;51.558;-0.448;2023-05-08T09:59:38;101448.13;;;13.11;100.00
60832;BME280;46665;51.558;-0.448;2023-05-08T10:02:10;101451.09;;;13.19;100.00
60832;BME280;46665;51.558;-0.448;2023-05-08T10:04:36;101461.50;;;13.17;100.00
60832;BME280;46665;51.558;-0.448;2023-05-08T10:07:03;101446.44;;;13.30;100.00
60832;BME280;46665;51.558;-0.448;2023-05-08T10:09:28;101449.97;;;13.36;100.00
60832;BME280;46665;51.558;-0.448;2023-05-08T10:11:54;101450.75;;;13.41;100.00
60832;BME280;46665;51.558;-0.448;2023-05-08T10:14:21;101447.75;;;13.43;100.00
60832;BME280;46665;51.558;-0.448;2023-05-08T10:16:50;101444.22;;;13.37;100.00
60832;BME280;46665;51.558;-0.448;2023-05-08T10:19:24;101433.56;;;13.36;100.00
60832;BME280;46665;51.558;-0.448;2023-05-08T10:21:53;101426.66;;;13.49;100.00
60832;BME280;46665;51.558;-0.448;2023-05-08T10:24:20;101412.13;;;13.58;100.00
60832;BME280;46665;51.558;-0.448;2023-05-08T10:27:10;101419.69;;;13.72;100.00
60832;BME280;46665;51.558;-0.448;2023-05-08T10:29:49;101415.00;;;13.82;100.00
60832;BME280;46665;51.558;-0.448;2023-05-08T10:32:19;101406.75;;;13.87;100.00
60832;BME280;46665;51.558;-0.448;2023-05-08T10:34:48;101411.97;;;13.84;100.00
60832;BME280;46665;51.558;-0.448;2023-05-08T10:37:15;101417.78;;;13.72;100.00
60832;BME280;46665;51.558;-0.448;2023-05-08T10:39:41;101420.81;;;13.71;100.00
60832;BME280;46665;51.558;-0.448;2023-05-08T10:42:08;101411.28;;;13.63;100.00
60832;BME280;46665;51.558;-0.448;2023-05-08T10:44:34;101410.69;;;13.71;100.00
60832;BME280;46665;51.558;-0.448;2023-05-08T10:47:14;101415.31;;;13.76;100.00
60832;BME280;46665;51.558;-0.448;2023-05-08T10:53:06;101404.88;;;13.83;100.00
60832;BME280;46665;51.558;-0.448;2023-05-08T10:55:37;101412.19;;;13.93;100.00
60832;BME280;46665;51.558;-0.448;2023-05-08T10:58:12;101408.25;;;14.04;100.00
60832;BME280;46665;51.558;-0.448;2023-05-08T11:03:44;101421.44;;;13.97;100.00
60832;BME280;46665;51.558;-0.448;2023-05-08T11:06:10;101417.72;;;13.77;100.00
60832;BME280;46665;51.558;-0.448;2023-05-08T11:08:49;101401.13;;;13.69;100.00
60832;BME280;46665;51.558;-0.448;2023-05-08T11:11:29;101410.91;;;13.75;100.00
60832;BME280;46665;51.558;-0.448;2023-05-08T11:19:22;101412.06;;;13.69;100.00
60832;BME280;46665;51.558;-0.448;2023-05-08T11:22:40;101407.41;;;13.69;100.00
60832;BME280;46665;51.558;-0.448;2023-05-08T11:25:08;101413.72;;;13.64;100.00
60832;BME280;46665;51.558;-0.448;2023-05-08T11:41:06;101423.59;;;13.60;100.00
60832;BME280;46665;51.558;-0.448;2023-05-08T11:46:02;101411.03;;;13.54;100.00
60832;BME280;46665;51.558;-0.448;2023-05-08T11:48:31;101429.69;;;13.47;100.00
60832;BME280;46665;51.558;-0.448;2023-05-08T11:51:01;101415.47;;;13.45;100.00
60832;BME280;46665;51.558;-0.448;2023-05-08T11:53:27;101423.97;;;13.38;100.00
60832;BME280;46665;51.558;-0.448;2023-05-08T11:55:54;101432.44;;;13.47;100.00
60832;BME280;46665;51.558;-0.448;2023-05-08T11:58:20;101436.06;;;13.32;100.00
60832;BME280;46665;51.558;-0.448;2023-05-08T12:00:46;101429.53;;;13.13;100.00
60832;BME280;46665;51.558;-0.448;2023-05-08T12:03:17;101433.13;;;13.03;100.00
60832;BME280;46665;51.558;-0.448;2023-05-08T12:05:43;101425.75;;;12.93;100.00
60832;BME280;46665;51.558;-0.448;2023-05-08T12:08:10;101420.56;;;12.97;100.00
60832;BME280;46665;51.558;-0.448;2023-05-08T12:15:51;101397.94;;;12.91;100.00
60832;BME280;46665;51.558;-0.448;2023-05-08T12:18:20;101405.81;;;12.93;100.00
60832;BME280;46665;51.558;-0.448;2023-05-08T12:23:18;101398.75;;;12.87;100.00
60832;BME280;46665;51.558;-0.448;2023-05-08T12:25:43;101409.66;;;12.92;100.00
60832;BME280;46665;51.558;-0.448;2023-05-08T12:28:09;101411.31;;;12.83;100.00
60832;BME280;46665;51.558;-0.448;2023-05-08T12:30:35;101397.41;;;12.79;100.00
60832;BME280;46665;51.558;-0.448;2023-05-08T12:33:02;101401.25;;;12.63;100.00
60832;BME280;46665;51.558;-0.448;2023-05-08T12:35:29;101390.63;;;12.61;100.00
60832;BME280;46665;51.558;-0.448;2023-05-08T12:38:00;101375.31;;;12.65;100.00
60832;BME280;46665;51.558;-0.448;2023-05-08T12:40:31;101376.41;;;12.74;100.00
60832;BME280;46665;51.558;-0.448;2023-05-08T12:43:00;101385.13;;;12.82;100.00
60832;BME280;46665;51.558;-0.448;2023-05-08T12:45:36;101385.09;;;12.92;100.00
60832;BME280;46665;51.558;-0.448;2023-05-08T12:48:13;101379.06;;;12.95;100.00
60832;BME280;46665;51.558;-0.448;2023-05-08T12:50:44;101382.03;;;12.98;100.00
60832;BME280;46665;51.558;-0.448;2023-05-08T12:53:16;101382.88;;;12.99;100.00
60832;BME280;46665;51.558;-0.448;2023-05-08T12:55:51;101395.13;;;13.07;100.00
60832;BME280;46665;51.558;-0.448;2023-05-08T12:58:24;101408.00;;;12.96;100.00
60832;BME280;46665;51.558;-0.448;2023-05-08T13:00:51;101390.53;;;12.92;100.00
60832;BME280;46665;51.558;-0.448;2023-05-08T13:03:35;101380.69;;;12.96;100.00
60832;BME280;46665;51.558;-0.448;2023-05-08T13:06:01;101366.72;;;13.02;100.00
60832;BME280;46665;51.558;-0.448;2023-05-08T13:08:31;101370.28;;;13.03;100.00
60832;BME280;46665;51.558;-0.448;2023-05-08T13:10:58;101371.06;;;13.09;100.00
60832;BME280;46665;51.558;-0.448;2023-05-08T13:13:26;101366.94;;;13.11;100.00
60832;BME280;46665;51.558;-0.448;2023-05-08T13:15:53;101373.22;;;13.22;100.00
60832;BME280;46665;51.558;-0.448;2023-05-08T13:18:21;101358.16;;;13.30;100.00
60832;BME280;46665;51.558;-0.448;2023-05-08T13:20:48;101356.78;;;13.32;100.00
60832;BME280;46665;51.558;-0.448;2023-05-08T13:23:13;101360.03;;;13.39;100.00
60832;BME280;46665;51.558;-0.448;2023-05-08T13:25:39;101353.44;;;13.40;100.00
60832;BME280;46665;51.558;-0.448;2023-05-08T13:28:06;101349.25;;;13.53;100.00
60832;BME280;46665;51.558;-0.448;2023-05-08T13:30:32;101339.69;;;13.56;100.00
60832;BME280;46665;51.558;-0.448;2023-05-08T13:32:58;101341.19;;;13.72;100.00
60832;BME280;46665;51.558;-0.448;2023-05-08T13:35:24;101345.50;;;13.83;100.00
60832;BME280;46665;51.558;-0.448;2023-05-08T13:37:50;101341.09;;;13.87;100.00
60832;BME280;46665;51.558;-0.448;2023-05-08T13:40:16;101352.22;;;13.96;100.00